Retour à l'actu

LFPG

METAR

LFPG 190630Z 36004KT 330V040 9999 FEW005 SCT160 19/16 Q1015 NOSIG

TAF

LFPG 190500Z
  • | 1906/2012 VRB03KT 9999 BKN016 TX27/1915Z TN17/1906Z
  • | PROB30 TEMPO 1906/1908 BKN012
  • | TEMPO 1914/1924 SCT050TCU
  • | PROB40 TEMPO 1916/1918 4000 TSRA SCT040CB
  • | TEMPO 1919/1921 VRB15G35KT 1500 TSGRRA BKN030CB
  • | PROB40 TEMPO 1922/1924 20015G25KT 4000 TSRA SCT030CB
  • | PROB30 TEMPO 2002/2006 BKN012